createdAt,value
2018-05-06T00:02:09.582Z,17.80
2018-05-06T00:04:37.083Z,17.80
2018-05-06T00:07:04.576Z,17.70
2018-05-06T00:09:32.871Z,17.70
2018-05-06T00:12:01.129Z,17.60
2018-05-06T00:14:28.626Z,17.50
2018-05-06T00:16:56.925Z,17.50
2018-05-06T00:19:24.426Z,17.40
2018-05-06T00:21:51.911Z,17.50
2018-05-06T00:24:19.442Z,17.50
2018-05-06T00:26:46.941Z,17.40
2018-05-06T00:29:14.422Z,17.40
2018-05-06T00:31:41.938Z,17.40
2018-05-06T00:34:10.187Z,17.30
2018-05-06T00:36:37.670Z,17.30
2018-05-06T00:39:05.219Z,17.40
2018-05-06T00:41:32.710Z,17.40
2018-05-06T00:44:00.212Z,17.40
2018-05-06T00:46:27.790Z,17.40
2018-05-06T00:48:55.243Z,17.40
2018-05-06T00:51:23.498Z,17.30
2018-05-06T00:53:51.024Z,17.30
2018-05-06T00:56:18.535Z,17.30
2018-05-06T00:58:46.034Z,17.30
2018-05-06T01:01:14.331Z,17.10
2018-05-06T01:03:42.585Z,17.20
2018-05-06T01:06:10.078Z,17.10
2018-05-06T01:08:37.600Z,17.00
2018-05-06T01:11:05.085Z,17.00
2018-05-06T01:13:32.623Z,16.90
2018-05-06T01:16:00.104Z,16.90
2018-05-06T01:18:27.592Z,16.90
2018-05-06T01:20:55.108Z,16.80
2018-05-06T01:23:23.383Z,16.90
2018-05-06T01:25:50.907Z,16.80
2018-05-06T01:28:18.420Z,16.80
2018-05-06T01:30:45.909Z,16.60
2018-05-06T01:33:14.303Z,16.60
2018-05-06T01:35:42.576Z,16.70
2018-05-06T01:38:10.071Z,16.60
2018-05-06T01:40:38.347Z,16.70
2018-05-06T01:43:06.608Z,16.70
2018-05-06T01:45:34.091Z,16.60
2018-05-06T01:48:01.611Z,16.70
2018-05-06T01:50:29.102Z,16.60
2018-05-06T01:52:56.598Z,16.60
2018-05-06T01:55:24.175Z,16.60
2018-05-06T01:57:51.664Z,16.40
2018-05-06T02:00:19.915Z,16.50
2018-05-06T02:02:47.441Z,16.40
2018-05-06T02:05:14.935Z,16.50
2018-05-06T02:07:42.430Z,16.50
2018-05-06T02:10:09.955Z,16.40
2018-05-06T02:12:37.459Z,16.40
2018-05-06T02:15:04.974Z,16.30
2018-05-06T02:17:33.223Z,16.40
2018-05-06T02:20:00.707Z,16.40
2018-05-06T02:22:28.236Z,16.30
2018-05-06T02:24:55.717Z,16.20
2018-05-06T02:27:23.221Z,16.10
2018-05-06T02:29:50.728Z,16.00
2018-05-06T02:32:18.217Z,16.00
2018-05-06T02:34:45.732Z,15.80
2018-05-06T02:37:13.215Z,15.80
2018-05-06T02:39:40.709Z,15.90
2018-05-06T02:42:08.227Z,15.90
2018-05-06T02:44:35.706Z,15.80
2018-05-06T02:47:03.190Z,16.00
2018-05-06T02:49:30.716Z,16.10
2018-05-06T02:51:58.215Z,16.00
2018-05-06T02:54:25.708Z,16.00
2018-05-06T02:56:53.983Z,15.90
2018-05-06T02:59:21.483Z,15.90
2018-05-06T03:01:49.007Z,15.80
2018-05-06T03:04:16.488Z,15.80
2018-05-06T03:06:43.979Z,15.80
2018-05-06T03:09:11.509Z,15.80
2018-05-06T03:11:39.009Z,15.80
2018-05-06T03:14:06.510Z,15.70
2018-05-06T03:16:34.023Z,15.60
2018-05-06T03:19:01.510Z,15.60
2018-05-06T03:21:28.993Z,15.50
2018-05-06T03:23:56.505Z,15.40
2018-05-06T03:26:23.992Z,15.40
2018-05-06T03:28:51.520Z,15.40
2018-05-06T03:31:19.786Z,15.40
2018-05-06T03:33:47.287Z,15.30
2018-05-06T03:36:15.567Z,15.20
2018-05-06T03:38:43.809Z,15.20
2018-05-06T03:41:11.286Z,15.20
2018-05-06T03:43:38.807Z,15.20
2018-05-06T03:46:06.294Z,15.10
2018-05-06T03:48:33.782Z,15.30
2018-05-06T03:51:01.307Z,15.30
2018-05-06T03:53:29.567Z,15.50
2018-05-06T03:59:15.334Z,15.40
2018-05-06T04:01:47.468Z,15.50
2018-05-06T04:04:15.275Z,15.40
2018-05-06T04:06:42.766Z,15.40
2018-05-06T04:09:10.278Z,15.40
2018-05-06T04:11:37.763Z,15.30
2018-05-06T04:14:05.247Z,15.20
2018-05-06T04:16:32.773Z,15.10
2018-05-06T04:19:00.325Z,15.10
2018-05-06T04:21:27.822Z,15.00
2018-05-06T04:23:55.329Z,15.10
2018-05-06T04:26:22.815Z,15.10
2018-05-06T04:28:51.067Z,15.00
2018-05-06T04:31:18.574Z,14.90
2018-05-06T04:33:46.833Z,14.80
2018-05-06T04:36:14.309Z,14.80
2018-05-06T04:38:41.922Z,15.00
2018-05-06T04:41:09.412Z,15.00
2018-05-06T04:43:36.904Z,15.00
2018-05-06T04:46:04.414Z,15.10
2018-05-06T04:48:32.664Z,14.90
2018-05-06T04:51:00.151Z,14.80
2018-05-06T04:53:27.682Z,14.90
2018-05-06T04:55:55.175Z,14.80
2018-05-06T04:58:22.669Z,14.80
2018-05-06T05:00:50.274Z,14.80
2018-05-06T05:03:17.763Z,14.70
2018-05-06T05:05:45.259Z,14.70
2018-05-06T05:08:12.766Z,14.70
2018-05-06T05:10:41.023Z,14.90
2018-05-06T05:13:08.497Z,14.80
2018-05-06T05:15:36.111Z,14.90
2018-05-06T05:18:03.602Z,14.90
2018-05-06T05:20:31.096Z,14.90
2018-05-06T05:22:59.383Z,14.90
2018-05-06T05:25:26.874Z,14.90
2018-05-06T05:27:54.491Z,15.00
2018-05-06T05:30:21.975Z,14.90
2018-05-06T05:32:49.454Z,14.90
2018-05-06T05:35:16.985Z,15.10
2018-05-06T05:37:45.226Z,15.20
2018-05-06T05:40:12.711Z,15.20
2018-05-06T05:42:40.285Z,15.40
2018-05-06T05:45:07.730Z,15.40
2018-05-06T05:47:35.261Z,15.50
2018-05-06T05:50:02.736Z,15.70
2018-05-06T05:52:30.230Z,15.70
2018-05-06T05:54:57.753Z,15.70
2018-05-06T05:57:26.006Z,15.80
2018-05-06T05:59:54.532Z,15.70
2018-05-06T06:02:22.019Z,15.80
2018-05-06T06:04:50.260Z,16.00
2018-05-06T06:07:17.753Z,15.90
2018-05-06T06:09:45.341Z,16.20
2018-05-06T06:12:12.771Z,16.20
2018-05-06T06:14:40.253Z,16.10
2018-05-06T06:17:07.767Z,16.20
2018-05-06T06:19:35.263Z,16.30
2018-05-06T06:22:02.753Z,16.40
2018-05-06T06:24:30.282Z,16.60
2018-05-06T06:26:57.765Z,16.60
2018-05-06T06:29:25.250Z,16.60
2018-05-06T06:31:52.769Z,16.60
2018-05-06T06:34:21.050Z,16.80
2018-05-06T06:36:48.538Z,16.80
2018-05-06T06:39:16.945Z,17.00
2018-05-06T06:41:44.431Z,16.90
2018-05-06T06:44:11.922Z,17.00
2018-05-06T06:46:39.434Z,17.00
2018-05-06T06:49:07.699Z,17.20
2018-05-06T06:51:35.186Z,17.20
2018-05-06T06:54:03.475Z,17.30
2018-05-06T06:56:30.962Z,17.30
2018-05-06T06:58:59.204Z,17.50
2018-05-06T07:01:26.728Z,17.50
2018-05-06T07:03:54.210Z,17.70
2018-05-06T07:06:21.698Z,17.80
2018-05-06T07:08:49.213Z,18.00
2018-05-06T07:11:17.525Z,18.60
2018-05-06T07:13:44.964Z,18.50
2018-05-06T07:16:12.473Z,19.10
2018-05-06T07:18:39.983Z,19.90
2018-05-06T07:21:07.458Z,20.80
2018-05-06T07:23:34.970Z,21.60
2018-05-06T07:26:02.470Z,22.10
2018-05-06T07:28:29.994Z,22.60
2018-05-06T07:30:58.261Z,23.40
2018-05-06T07:33:25.748Z,23.40
2018-05-06T07:35:53.332Z,23.80
2018-05-06T07:38:20.751Z,24.10
2018-05-06T07:40:48.239Z,24.30
2018-05-06T07:43:15.751Z,24.30
2018-05-06T07:45:43.239Z,24.70
2018-05-06T07:48:10.721Z,24.80
2018-05-06T07:50:38.231Z,25.10
2018-05-06T07:53:05.731Z,25.50
2018-05-06T07:55:33.985Z,25.20
2018-05-06T07:58:01.514Z,25.20
2018-05-06T08:00:29.027Z,25.30
2018-05-06T08:02:56.583Z,25.60
2018-05-06T08:05:24.097Z,25.90
2018-05-06T08:07:51.607Z,26.20
2018-05-06T08:10:19.121Z,26.40
2018-05-06T08:12:46.620Z,26.50
2018-05-06T08:15:14.103Z,26.60
2018-05-06T08:17:41.723Z,26.60
2018-05-06T08:20:09.266Z,26.90
2018-05-06T08:22:36.751Z,26.90
2018-05-06T08:25:04.262Z,26.90
2018-05-06T08:27:32.811Z,27.20
2018-05-06T08:30:00.311Z,27.10
2018-05-06T08:32:28.686Z,26.80
2018-05-06T08:34:56.177Z,26.70
2018-05-06T08:37:23.676Z,26.80
2018-05-06T08:39:51.197Z,26.70
2018-05-06T08:42:18.733Z,26.60
2018-05-06T08:44:46.228Z,26.30
2018-05-06T08:47:15.751Z,26.10
2018-05-06T08:49:43.240Z,26.40
2018-05-06T08:52:10.735Z,26.50
2018-05-06T08:54:38.364Z,26.30
2018-05-06T08:57:05.898Z,26.30
2018-05-06T08:59:33.389Z,26.00
2018-05-06T09:02:00.920Z,26.00
2018-05-06T09:04:28.427Z,26.00
2018-05-06T09:06:55.905Z,26.10
2018-05-06T09:09:23.412Z,26.20
2018-05-06T09:11:51.669Z,26.00
2018-05-06T09:14:19.155Z,25.90
2018-05-06T09:16:46.692Z,25.80
2018-05-06T09:19:14.175Z,25.90
2018-05-06T09:21:41.664Z,25.30
2018-05-06T09:24:09.294Z,25.60
2018-05-06T09:26:36.774Z,25.60
2018-05-06T09:29:04.265Z,25.80
2018-05-06T09:31:31.782Z,26.10
2018-05-06T09:34:00.043Z,26.10
2018-05-06T09:36:27.534Z,26.10
2018-05-06T09:38:55.818Z,26.00
2018-05-06T09:41:24.063Z,26.00
2018-05-06T09:43:51.548Z,25.90
2018-05-06T09:46:19.051Z,25.90
2018-05-06T09:48:47.311Z,25.80
2018-05-06T09:51:14.809Z,25.80
2018-05-06T09:53:43.103Z,25.70
2018-05-06T09:56:11.360Z,25.50
2018-05-06T09:58:38.850Z,25.50
2018-05-06T10:01:06.375Z,25.70
2018-05-06T10:03:33.879Z,25.80
2018-05-06T10:06:01.366Z,26.00
2018-05-06T10:08:29.653Z,25.80
2018-05-06T10:10:57.906Z,25.70
2018-05-06T10:13:25.416Z,25.70
2018-05-06T10:15:53.732Z,26.00
2018-05-06T10:18:21.173Z,25.90
2018-05-06T10:20:49.455Z,26.00
2018-05-06T10:23:17.702Z,25.60
2018-05-06T10:25:45.179Z,25.50
2018-05-06T10:28:13.471Z,25.70
2018-05-06T10:30:41.653Z,26.20
2018-05-06T10:33:09.135Z,26.20
2018-05-06T10:35:36.650Z,26.30
2018-05-06T10:38:04.131Z,26.10
2018-05-06T10:40:31.615Z,26.10
2018-05-06T10:42:59.128Z,26.20
2018-05-06T10:45:27.382Z,26.30
2018-05-06T10:47:54.877Z,26.20
2018-05-06T10:50:22.579Z,26.30
2018-05-06T10:52:49.999Z,26.20
2018-05-06T10:55:17.488Z,26.20
2018-05-06T10:57:45.005Z,26.30
2018-05-06T11:00:12.486Z,26.30
2018-05-06T11:02:39.957Z,26.40
2018-05-06T11:05:07.467Z,26.40
2018-05-06T11:07:34.968Z,26.30
2018-05-06T11:10:03.206Z,26.00
2018-05-06T11:12:30.830Z,26.00
2018-05-06T11:14:59.080Z,25.80
2018-05-06T11:17:26.590Z,25.70
2018-05-06T11:19:54.872Z,25.40
2018-05-06T11:22:23.134Z,25.30
2018-05-06T11:24:50.625Z,25.30
2018-05-06T11:27:18.916Z,25.10
2018-05-06T11:29:46.422Z,25.10
2018-05-06T11:32:13.922Z,25.10
2018-05-06T11:34:41.455Z,25.00
2018-05-06T11:37:08.951Z,24.90
2018-05-06T11:39:36.433Z,24.90
2018-05-06T11:42:03.965Z,24.90
2018-05-06T11:44:31.477Z,24.40
2018-05-06T11:46:58.968Z,24.40
2018-05-06T11:49:26.502Z,24.40
2018-05-06T11:51:53.995Z,24.40
2018-05-06T11:54:21.494Z,24.50
2018-05-06T11:56:49.045Z,24.50
2018-05-06T11:59:16.534Z,24.50
2018-05-06T12:01:44.795Z,24.40
2018-05-06T12:04:12.297Z,24.40
2018-05-06T12:06:39.842Z,24.40
2018-05-06T12:09:07.336Z,24.40
2018-05-06T12:11:35.604Z,24.40
2018-05-06T12:14:03.113Z,24.30
2018-05-06T12:16:30.624Z,24.40
2018-05-06T12:18:58.331Z,24.30
2018-05-06T12:21:26.659Z,24.40
2018-05-06T12:23:54.246Z,24.30
2018-05-06T12:26:21.795Z,24.40
2018-05-06T12:28:49.302Z,24.40
2018-05-06T12:31:16.855Z,24.40
2018-05-06T12:33:44.459Z,24.30
2018-05-06T12:36:11.978Z,24.30
2018-05-06T12:38:39.514Z,24.40
2018-05-06T12:41:07.836Z,24.30
2018-05-06T12:43:35.368Z,24.20
2018-05-06T12:46:02.898Z,24.40
2018-05-06T12:48:30.450Z,24.30
2018-05-06T12:50:58.801Z,24.30
2018-05-06T12:53:50.096Z,24.30
2018-05-06T12:56:31.068Z,24.30
2018-05-06T13:01:54.384Z,24.30
2018-05-06T13:07:24.607Z,24.20
2018-05-06T13:10:01.764Z,24.30
2018-05-06T13:15:19.362Z,24.40
2018-05-06T13:17:53.374Z,24.30
2018-05-06T13:23:02.711Z,24.30
2018-05-06T13:28:28.341Z,24.30
2018-05-06T13:34:08.025Z,24.10
2018-05-06T13:36:36.311Z,24.20
2018-05-06T13:39:04.623Z,24.20
2018-05-06T13:41:32.147Z,24.10
2018-05-06T13:43:59.673Z,24.00
2018-05-06T13:46:27.211Z,24.00
2018-05-06T13:48:55.542Z,24.10
2018-05-06T13:51:23.215Z,24.00
2018-05-06T13:53:50.716Z,23.90
2018-05-06T13:56:18.244Z,23.90
2018-05-06T14:01:34.938Z,23.90
2018-05-06T14:04:14.378Z,24.20
2018-05-06T14:07:09.805Z,24.20
2018-05-06T14:09:49.716Z,24.20
2018-05-06T14:12:17.311Z,24.20
2018-05-06T14:14:45.573Z,24.40
2018-05-06T14:17:13.086Z,24.30
2018-05-06T14:19:40.578Z,24.40
2018-05-06T14:22:08.321Z,24.50
2018-05-06T14:24:36.621Z,24.50
2018-05-06T14:27:04.142Z,24.50
2018-05-06T14:29:31.644Z,24.50
2018-05-06T14:31:59.211Z,24.50
2018-05-06T14:34:27.486Z,24.50
2018-05-06T14:36:55.836Z,24.50
2018-05-06T14:39:23.321Z,24.40
2018-05-06T14:41:50.810Z,24.50
2018-05-06T14:44:18.448Z,24.60
2018-05-06T14:46:57.815Z,24.60
2018-05-06T14:49:25.457Z,24.60
2018-05-06T14:51:52.947Z,24.50
2018-05-06T14:54:20.451Z,24.50
2018-05-06T14:56:47.962Z,24.50
2018-05-06T14:59:15.448Z,24.50
2018-05-06T15:01:43.702Z,24.40
2018-05-06T15:04:12.081Z,24.50
2018-05-06T15:06:40.338Z,24.50
2018-05-06T15:09:07.818Z,24.50
2018-05-06T15:11:35.332Z,24.60
2018-05-06T15:14:02.831Z,24.50
2018-05-06T15:16:30.394Z,24.40
2018-05-06T15:18:57.884Z,24.40
2018-05-06T15:21:25.379Z,24.40
2018-05-06T15:23:52.893Z,24.50
2018-05-06T15:26:20.372Z,24.50
2018-05-06T15:28:47.899Z,24.40
2018-05-06T15:31:16.158Z,24.70
2018-05-06T15:33:43.662Z,24.70
2018-05-06T15:36:11.944Z,24.60
2018-05-06T15:38:39.442Z,24.60
2018-05-06T15:41:07.005Z,24.60
2018-05-06T15:43:34.501Z,24.70
2018-05-06T15:46:01.998Z,24.60
2018-05-06T15:48:29.486Z,24.70
2018-05-06T15:50:57.010Z,24.70
2018-05-06T15:53:24.504Z,24.70
2018-05-06T15:55:52.010Z,24.70
2018-05-06T15:58:20.301Z,24.70
2018-05-06T16:00:48.562Z,24.70
2018-05-06T16:03:27.844Z,24.70
2018-05-06T16:05:56.139Z,24.70
2018-05-06T16:08:24.410Z,24.70
2018-05-06T16:10:51.941Z,24.70
2018-05-06T16:13:19.422Z,24.70
2018-05-06T16:15:46.933Z,24.70
2018-05-06T16:18:15.220Z,24.60
2018-05-06T16:20:43.470Z,24.60
2018-05-06T16:23:10.958Z,24.50
2018-05-06T16:25:38.516Z,24.50
2018-05-06T16:28:05.994Z,24.60
2018-05-06T16:30:33.495Z,24.50
2018-05-06T16:33:01.780Z,24.50
2018-05-06T16:35:30.036Z,24.50
2018-05-06T16:37:57.709Z,24.40
2018-05-06T16:40:25.182Z,24.50
2018-05-06T16:42:52.670Z,24.50
2018-05-06T16:45:20.172Z,24.50
2018-05-06T16:47:47.727Z,24.50
2018-05-06T16:50:15.223Z,24.40
2018-05-06T16:52:42.828Z,24.40
2018-05-06T16:55:11.207Z,24.40
2018-05-06T16:57:38.897Z,24.30
2018-05-06T17:00:06.567Z,24.40
2018-05-06T17:02:34.249Z,24.40
2018-05-06T17:05:01.965Z,24.30
2018-05-06T17:07:29.594Z,24.30
2018-05-06T17:09:57.309Z,24.40
2018-05-06T17:12:25.801Z,24.30
2018-05-06T17:14:54.254Z,24.30
2018-05-06T17:17:21.874Z,24.20
2018-05-06T17:19:49.461Z,24.30
2018-05-06T17:22:17.061Z,24.20
2018-05-06T17:24:44.687Z,24.10
2018-05-06T17:27:12.230Z,24.20
2018-05-06T17:29:39.932Z,24.10
2018-05-06T17:32:07.508Z,24.10
2018-05-06T17:34:35.848Z,24.10
2018-05-06T17:37:05.079Z,24.00
2018-05-06T17:39:32.840Z,24.00
2018-05-06T17:42:00.450Z,24.00
2018-05-06T17:44:28.869Z,23.90
2018-05-06T17:46:56.641Z,23.90
2018-05-06T17:49:24.263Z,23.90
2018-05-06T17:51:53.093Z,23.90
2018-05-06T17:54:21.107Z,23.80
2018-05-06T17:56:48.777Z,23.80
2018-05-06T17:59:16.608Z,23.80
2018-05-06T18:01:44.189Z,23.80
2018-05-06T18:04:12.256Z,23.80
2018-05-06T18:06:40.688Z,23.80
2018-05-06T18:09:08.322Z,23.70
2018-05-06T18:11:36.091Z,23.70
2018-05-06T18:14:03.755Z,23.70
2018-05-06T18:16:31.349Z,23.70
2018-05-06T18:18:58.950Z,23.70
2018-05-06T18:21:27.331Z,23.60
2018-05-06T18:23:54.940Z,23.60
2018-05-06T18:26:22.458Z,23.60
2018-05-06T18:28:50.000Z,23.50
2018-05-06T18:31:17.527Z,23.50
2018-05-06T18:33:45.807Z,23.50
2018-05-06T18:36:14.098Z,23.50
2018-05-06T18:38:42.346Z,23.40
2018-05-06T18:41:09.843Z,23.40
2018-05-06T18:43:37.472Z,23.40
2018-05-06T18:46:04.965Z,23.20
2018-05-06T18:48:32.456Z,22.90
2018-05-06T18:50:59.976Z,22.70
2018-05-06T18:53:27.458Z,22.50
2018-05-06T18:55:54.975Z,22.50
2018-05-06T18:58:22.472Z,22.40
2018-05-06T19:00:49.971Z,22.30
2018-05-06T19:03:17.503Z,22.20
2018-05-06T19:05:45.012Z,22.10
2018-05-06T19:08:12.504Z,22.20
2018-05-06T19:10:40.030Z,22.10
2018-05-06T19:13:07.523Z,22.00
2018-05-06T19:15:35.005Z,22.10
2018-05-06T19:18:02.550Z,22.10
2018-05-06T19:20:30.030Z,22.30
2018-05-06T19:22:57.520Z,22.40
2018-05-06T19:25:25.146Z,22.50
2018-05-06T19:27:52.634Z,22.50
2018-05-06T19:30:20.147Z,22.50
2018-05-06T19:32:47.716Z,22.60
2018-05-06T19:35:15.202Z,22.60
2018-05-06T19:37:43.573Z,22.50
2018-05-06T19:40:11.042Z,22.50
2018-05-06T19:42:38.539Z,22.40
2018-05-06T19:45:06.795Z,22.40
2018-05-06T19:47:34.324Z,22.30
2018-05-06T19:50:01.836Z,22.40
2018-05-06T19:52:29.338Z,22.30
2018-05-06T19:54:57.627Z,22.20
2018-05-06T19:57:25.882Z,22.30
2018-05-06T19:59:53.394Z,22.20
2018-05-06T20:02:21.650Z,22.20
2018-05-06T20:04:49.195Z,22.20
2018-05-06T20:07:16.720Z,22.20
2018-05-06T20:09:44.995Z,22.20
2018-05-06T20:12:13.278Z,22.10
2018-05-06T20:14:40.771Z,22.10
2018-05-06T20:17:09.037Z,22.10
2018-05-06T20:19:36.554Z,22.00
2018-05-06T20:22:04.027Z,22.20
2018-05-06T20:24:31.516Z,22.20
2018-05-06T20:26:59.040Z,22.00
2018-05-06T20:29:27.306Z,21.90
2018-05-06T20:31:54.803Z,21.90
2018-05-06T20:34:23.239Z,21.90
2018-05-06T20:36:50.791Z,21.80
2018-05-06T20:39:18.318Z,21.80
2018-05-06T20:41:46.620Z,21.80
2018-05-06T20:44:15.397Z,21.80
2018-05-06T20:46:42.894Z,21.70
2018-05-06T20:49:10.449Z,21.80
2018-05-06T20:51:37.995Z,21.70
2018-05-06T20:54:05.480Z,21.60
2018-05-06T20:56:33.029Z,21.60
2018-05-06T20:59:00.509Z,21.50
2018-05-06T21:01:28.007Z,21.40
2018-05-06T21:03:56.332Z,21.40
2018-05-06T21:06:23.823Z,21.40
2018-05-06T21:08:51.324Z,21.30
2018-05-06T21:11:18.857Z,21.20
2018-05-06T21:13:46.370Z,21.30
2018-05-06T21:16:14.640Z,21.20
2018-05-06T21:18:42.166Z,21.20
2018-05-06T21:21:09.670Z,21.20
2018-05-06T21:23:37.161Z,21.10
2018-05-06T21:26:04.697Z,21.00
2018-05-06T21:28:32.246Z,21.10
2018-05-06T21:30:59.703Z,21.10
2018-05-06T21:33:28.143Z,21.00
2018-05-06T21:35:55.618Z,21.00
2018-05-06T21:38:23.089Z,20.90
2018-05-06T21:40:50.649Z,20.90
2018-05-06T21:43:18.171Z,20.90
2018-05-06T21:45:46.455Z,20.80
2018-05-06T21:48:14.751Z,20.80
2018-05-06T21:50:43.030Z,20.80
2018-05-06T21:53:11.362Z,20.70
2018-05-06T21:55:38.822Z,20.70
2018-05-06T21:58:06.319Z,20.70
2018-05-06T22:00:33.848Z,20.60
2018-05-06T22:03:01.349Z,20.60
2018-05-06T22:05:28.845Z,20.60
2018-05-06T22:07:56.464Z,20.50
2018-05-06T22:10:23.950Z,20.50
2018-05-06T22:12:51.441Z,20.40
2018-05-06T22:15:18.953Z,20.40
2018-05-06T22:17:46.463Z,20.30
2018-05-06T22:20:13.941Z,20.30
2018-05-06T22:22:41.463Z,20.20
2018-05-06T22:25:09.716Z,20.20
2018-05-06T22:27:37.200Z,20.20
2018-05-06T22:30:04.701Z,20.20
2018-05-06T22:32:32.198Z,20.20
2018-05-06T22:34:59.678Z,20.10
2018-05-06T22:37:27.215Z,19.90
2018-05-06T22:39:55.484Z,19.80
2018-05-06T22:42:22.965Z,19.70
2018-05-06T22:44:51.259Z,19.50
2018-05-06T22:47:19.539Z,19.50
2018-05-06T22:49:47.827Z,19.30
2018-05-06T22:52:16.090Z,19.40
2018-05-06T22:54:43.581Z,19.30
2018-05-06T22:57:11.093Z,19.40
2018-05-06T22:59:38.580Z,19.40
2018-05-06T23:02:06.110Z,19.30
2018-05-06T23:04:34.359Z,19.30
2018-05-06T23:07:01.846Z,19.20
2018-05-06T23:09:29.360Z,19.30
2018-05-06T23:11:56.851Z,19.10
2018-05-06T23:14:24.343Z,19.10
2018-05-06T23:16:51.862Z,19.00
2018-05-06T23:19:19.353Z,19.00
2018-05-06T23:21:46.935Z,19.00
2018-05-06T23:24:14.380Z,19.00
2018-05-06T23:26:41.862Z,19.00
2018-05-06T23:29:09.480Z,19.10
2018-05-06T23:31:36.974Z,19.00
2018-05-06T23:34:05.222Z,18.90
2018-05-06T23:36:32.823Z,18.90
2018-05-06T23:39:01.074Z,18.70
2018-05-06T23:41:28.546Z,18.60
2018-05-06T23:43:56.107Z,18.60
2018-05-06T23:46:23.581Z,18.60
2018-05-06T23:48:51.070Z,18.60
2018-05-06T23:51:18.594Z,18.50
2018-05-06T23:53:46.101Z,18.60
2018-05-06T23:56:13.589Z,18.30
2018-05-06T23:58:41.133Z,18.20
